Timeline UpdatesTrip UpdatesNews PostsPvt PostsTravel TipsAdmin PostsConv PostsFollowed PostsChat RequestsBlog PostsPNR Posts

Disclaimer
Search
 
 
Wed Oct 1, 2014 03:28:57 ISTHomeTrainsΣChainsAtlasPNRForumGalleryNewsFAQTripsMembersLoginFeedback
No Recent News for this Train
Other Trains in the News **new
Latest...
.
Sat Apr 26, 2014 (07:41PM)
⇐ Return Journey: Train# 16507

16508/Bangalore - Bhagat Ki Kothi Express

NO Time-Table Change.
Sep 09 (12:42AM)
Change Departure Station:
Change Arrival Station:
Post a Train Travel TipPost a Train Travel Tip **new
Post a Comment/Question/Picture/VideoPost a Comment/Question/Picture/Video
Pantry/Catering
✓ Pantry Car Avbl
✓ Catering Avbl
good
RSA - Rake Sharing
Rake/Coach Composition
Loco-[SLR]-[UR]-[UR]-[A1]-[A2]-[B1]-[B2]-[B3]-[S1]-[S2]-[S3]-[PC]-[S4]-[S5]-[S6]-[S7]-[S8]-[S9]-[S10]-[S11]-[S12][UR]-[SLR]
Loco
Hubli shed WDP-4
News    PNR    Forum    Time-Table    Availability    Fare Chart    Map    Arr/Dep History    Trips    Gallery    ΣChains    X/O    Timeline    
Travel Time: 12h 0m    13 halts    Distance: 630 km    Avg Speed: 52 km/hr
Type: Mail/Express
Zone: SWR/South Western
Departs @ 18:50 (Avg 13m late)
Platform# 3
  T T  
Pune Junction/PUNE 
Arrives @ 06:50 +1 night (Avg 48m late)
Platform# 6
   W F 
Ahmedabad Junction/ADI 

13 halts. 125 intermediate Stations between Pune Junction and Ahmedabad Junction

Show ALL intermediate Stations  

#CodeStation NameX/OArrivesAvgDepartsAvgHaltPFDay#KmSpeedElevZoneAddress
1SBCBangalore City Junction (10)  -21:50+281-1028.726903mSWRBengaluru-560023, Karnataka
2YPRYesvantpur Junction (6)22:03+422:05+42m31-1023.166919mSWRBengaluru 560022, Karnataka
3TKTumkur (3)  23:03+423:05+52m11-959.171823mSWRTumkur, Karnataka
4TTRTiptur (4)  00:05+1900:06+211m22-888.139860mSWRTiptur, Karnataka
5ASKArsikere Junction (3)X  00:45+900:50+135m--2-862.663816mSWRArsikere, Karnataka
6RRBBirur Junction (3)X  01:33+901:35+102m12-817.659802mSWRBirur, Karnataka
7DVGDavangere (2)  03:32+3003:35+293m--2-702.659598mSWRDavanagere, Karnataka
8HRRHarihar (3)  03:48+3103:50+312m--2-689.858553mSWRHarihar, Karnataka
9RNRRanibennur (3)X  04:14+2904:15+301m--2-666.567583mSWRRanebennur, Karnataka
10HVRHaveri (3)  04:44+3704:45+371m--2-633.945558mSWRHaveri, Karnataka
11UBLHubli Junction (5)  06:25+1606:35+2710m12-558.850640mSWRHubli - 580020, Karnataka
12DWRDharwad (4)  06:59+3807:00+381m12-538.851737mSWRDharwad 580001, Karnataka
13LDLonda Junction (3)  08:23+3308:25+332m22-468.344643mSWRLonda, Karnataka
14BGMBelgaum (3)  09:35+3209:40+375m12-417.050752mSWRBelgaum 590001, Karnataka
15GPBGhatprabha (2)  10:49+1010:50+131m12-359.143621mSWRGhatprabha, Karnataka
16MRJMiraj Junction (6)  12:40+1512:45+265m12-279.637554mCRMiraj 416410, Maharashtra
17SLISangli (3)  12:57+2813:00+293m12-272.369559mCRSangli, Maharashtra
18KRDKarad (3)  13:59+3314:00+351m12-204.459597mCRDist- Satara., Maharashtra
19STRSatara (3)  15:00+3715:03+383m22-145.740637mCRSatara, Maharashtra
20PUNEPune Junction (6)»  18:40+718:50+1310m320.055556mCRPune 411001, Maharashtra
21LNLLonavala (3)X  19:59+920:00+131m2263.635623mCRLonavala 410401, Maharashtra
22KJTKarjat Junction (4)  20:49+1620:50+191m2292.37657mCRKarjat, Maharashtra
23KYNKalyan Junction (8)X  21:27+2321:30+203m62139.12810mCRKalyan 421301, Maharashtra
24BIRDBhiwandi Road (4)  22:09+2322:10+251m--2157.14126mCRBhiwandi, Maharashtra
25BSRVasai Road (7)  22:50+722:55+55m62184.4647mWRVasai 401202, Maharashtra
26VAPIVapi (3)X  00:49+2100:50+231m--3305.56327mWRVapi, Gujarat
27BLValsad (3)X  01:15+2101:16+241m23331.74315mWRValsad, Gujarat
28NVSNavsari (3)X  02:10+1102:11+121m13370.85214mWRNavsari, Gujarat
29STSurat (4)XO  02:45+602:55+610m33400.47119mWRSurat 395001, Gujarat
30BHBharuch Junction (5)X  03:45+1903:46+201m33459.76519mWRBharuch, Gujarat
31BRCVadodara Junction (7)X  04:51+2005:01+1910m23530.26536mWRVadodara 390005, Gujarat
32ANNDAnand Junction (6)X  05:34+305:35+31m--3566.06944mWRAnand, Gujarat
33NDNadiad Junction (4)X  05:51+2305:52+241m--3584.54737mWRNadiad, Gujarat
34ADIAhmedabad Junction (12)•X  06:50+4807:05+5715m63630.03351mWRAhmedabad, Gujarat
35MSHMahesana Junction (6)  09:19+3109:20+321m--3703.06595mWRMehsana, Gujarat
36SIDSiddhpur  09:53+3209:54+331m--3738.632136mWRState Highway 41, Gujarat
37PNUPalanpur Junction (5)X  10:49+1210:50+161m--3768.057216mWRPalanpur, Gujarat
38ABRAbu Road (3)X  11:45+3511:55+3810m23820.670264mNWRSirohi Dist, Rajasthan
39JWBJawai BandhX  13:06+4613:07+471m--3903.349292mNWRPali, Rajasthan
40FAFalna (2)  13:27+4013:28+401m--3919.549282mNWRFalna, Rajasthan
41MJMarwar Junction (4)  14:50+914:55+115m13986.081267mNWRMarwar Junction, Rajasthan
42PMYPali Marwar (2)  15:18+2315:19+271m131017.075221mNWRPali, Rajasthan
43LUNILuni Junction (3)  15:52+3415:55+343m--31058.234180mNWRLuni, Rajasthan
44BGKTBhagat Ki Kothi (3)  16:45+2116:46+1:121m--31086.553229mNWRJodhpur, Rajasthan
45JUJodhpur Junction (5)  16:50--231090.0-241mNWRJodhpur, Rajasthan
Scroll to Top
Scroll to Bottom